Time;durP1;ratioP1;P1;durP2;ratioP2;P2;SDS_P1;SDS_P2;PMS_P1;PMS_P2;Temp;Humidity;BMP_temperature;BMP_pressure;BME280_temperature;BME280_humidity;BME280_pressure;Samples;Min_cycle;Max_cycle;Signal;HPM_P1;HPM_P2
2021/07/13 00:01:52;;;;;;;1999.90;999.90;;;22.80;99.90;;;;;;5096180;28;20163;-81
2021/07/13 00:04:18;;;;;;;1999.90;999.90;;;22.80;99.90;;;;;;5095214;28;20171;-82
2021/07/13 00:06:43;;;;;;;1999.90;999.90;;;22.70;99.90;;;;;;5097096;28;20554;-82
2021/07/13 00:09:09;;;;;;;1999.90;999.90;;;22.80;99.90;;;;;;5095935;28;20517;-82
2021/07/13 00:11:35;;;;;;;1999.90;999.90;;;22.70;99.90;;;;;;5094950;28;20171;-81
2021/07/13 00:14:00;;;;;;;1999.90;999.90;;;22.70;99.90;;;;;;5095831;28;20225;-82
2021/07/13 00:16:26;;;;;;;1999.90;999.90;;;22.70;99.90;;;;;;5096056;28;20248;-82
2021/07/13 00:18:52;;;;;;;1999.90;999.90;;;22.60;99.90;;;;;;5094226;28;20163;-82
2021/07/13 00:21:17;;;;;;;1999.90;999.90;;;22.70;99.90;;;;;;5095592;28;20160;-82
2021/07/13 00:23:43;;;;;;;1999.90;999.90;;;22.60;99.90;;;;;;5095320;28;20159;-82
2021/07/13 00:26:09;;;;;;;1999.90;999.90;;;22.60;99.90;;;;;;5095392;28;20197;-82
2021/07/13 00:28:36;;;;;;;1999.90;999.90;;;22.60;99.90;;;;;;5096158;28;20404;-82
2021/07/13 00:31:01;;;;;;;1999.90;999.90;;;22.60;99.90;;;;;;5095955;28;20892;-83
2021/07/13 00:33:27;;;;;;;1999.90;999.90;;;22.50;99.90;;;;;;5095818;28;20401;-83
2021/07/13 00:35:53;;;;;;;1999.90;999.90;;;22.50;99.90;;;;;;5095021;28;20333;-83
2021/07/13 00:38:19;;;;;;;1999.90;999.90;;;22.30;99.90;;;;;;5095693;28;20447;-82
2021/07/13 00:40:44;;;;;;;1999.90;999.90;;;22.20;99.90;;;;;;5095987;28;20175;-82
2021/07/13 00:43:10;;;;;;;1999.90;999.90;;;22.20;99.90;;;;;;5095559;28;20195;-82
2021/07/13 00:45:36;;;;;;;1999.90;999.90;;;22.20;99.90;;;;;;5094344;28;20190;-82
2021/07/13 00:48:03;;;;;;;1999.90;999.90;;;22.10;99.90;;;;;;5095754;28;20178;-82
2021/07/13 00:50:29;;;;;;;1999.90;999.90;;;22.00;99.90;;;;;;5096080;28;20231;-82
2021/07/13 00:52:58;;;;;;;1999.90;999.90;;;21.80;99.90;;;;;;5078932;28;20405;-82
2021/07/13 00:55:24;;;;;;;1999.90;999.90;;;21.70;99.90;;;;;;5099498;28;20888;-82
2021/07/13 00:57:50;;;;;;;1999.90;999.90;;;21.70;99.90;;;;;;5081553;28;20428;-81
2021/07/13 01:00:19;;;;;;;1999.90;999.90;;;21.70;99.90;;;;;;5099886;28;20947;-82
2021/07/13 01:02:48;;;;;;;1999.90;999.90;;;21.80;99.90;;;;;;5100146;28;20181;-82
2021/07/13 01:05:17;;;;;;;1999.90;999.90;;;21.70;99.90;;;;;;5081500;28;20433;-82
2021/07/13 01:08:03;;;;;;;1999.90;999.90;;;21.70;99.90;;;;;;5099819;28;20393;-82
2021/07/13 01:10:41;;;;;;;1999.90;999.90;;;21.70;99.90;;;;;;5098929;28;20381;-81
2021/07/13 01:13:22;;;;;;;1999.90;999.90;;;21.70;99.90;;;;;;5099294;28;20440;-81
2021/07/13 01:15:56;;;;;;;1999.90;999.90;;;21.50;99.90;;;;;;5099012;28;20428;-80
2021/07/13 01:18:25;;;;;;;1999.90;999.90;;;21.50;99.90;;;;;;5099313;28;20378;-81
2021/07/13 01:21:13;;;;;;;1999.90;999.90;;;21.50;99.90;;;;;;5081147;28;20923;-81
2021/07/13 01:24:14;;;;;;;1999.90;999.90;;;21.50;99.90;;;;;;5099501;28;20393;-81
2021/07/13 01:26:49;;;;;;;1999.90;999.90;;;21.40;99.90;;;;;;5099057;28;20448;-81
2021/07/13 01:29:18;;;;;;;1999.90;999.90;;;21.30;99.90;;;;;;5099596;28;20377;-81
2021/07/13 01:31:45;;;;;;;1999.90;999.90;;;21.30;99.90;;;;;;5099052;28;20402;-81
2021/07/13 01:34:21;;;;;;;1999.90;999.90;;;21.20;99.90;;;;;;5098862;28;20974;-81
2021/07/13 01:36:59;;;;;;;1999.90;999.90;;;21.20;99.90;;;;;;5169866;22;20512;-85
2021/07/13 01:39:25;;;;;;;1999.90;999.90;;;21.20;99.90;;;;;;5078894;28;20399;-85
2021/07/13 01:41:54;;;;;;;1999.90;999.90;;;21.20;99.90;;;;;;5062025;28;20434;-85
2021/07/13 01:44:22;;;;;;;1999.90;999.90;;;21.20;99.90;;;;;;5080300;28;20801;-85
2021/07/13 01:46:51;;;;;;;1999.90;999.90;;;21.20;99.90;;;;;;5061045;28;20452;-85
2021/07/13 01:49:21;;;;;;;1999.90;999.90;;;21.20;99.90;;;;;;5078788;28;20773;-85
2021/07/13 01:51:57;;;;;;;1999.90;999.90;;;21.20;99.90;;;;;;5076376;28;20421;-85
2021/07/13 01:54:26;;;;;;;1999.90;999.90;;;21.20;99.90;;;;;;5076069;28;20386;-86
2021/07/13 01:56:55;;;;;;;1999.90;999.90;;;21.10;99.90;;;;;;5075592;28;20420;-86
2021/07/13 01:59:22;;;;;;;1999.90;999.90;;;21.10;99.90;;;;;;5074583;28;20434;-86
2021/07/13 02:01:49;;;;;;;1999.90;999.90;;;21.00;99.90;;;;;;5075542;28;20844;-85
2021/07/13 02:04:16;;;;;;;1999.90;999.90;;;21.00;99.90;;;;;;5075820;28;20409;-86
2021/07/13 02:06:43;;;;;;;1999.90;999.90;;;21.00;99.90;;;;;;5077298;28;20450;-86
2021/07/13 02:09:14;;;;;;;1999.90;999.90;;;20.90;99.90;;;;;;5077653;28;20852;-86
2021/07/13 02:11:47;;;;;;;1999.90;999.90;;;20.90;99.90;;;;;;5076873;28;20443;-86
2021/07/13 02:14:14;;;;;;;1999.90;999.90;;;20.80;99.90;;;;;;5076930;28;20415;-86
2021/07/13 02:16:40;;;;;;;1999.90;999.90;;;20.90;99.90;;;;;;5058223;28;20454;-86
2021/07/13 02:19:07;;;;;;;1999.90;999.90;;;20.90;99.90;;;;;;5076095;28;20493;-86
2021/07/13 02:21:34;;;;;;;1999.90;999.90;;;20.90;99.90;;;;;;5057883;28;20436;-86
2021/07/13 02:24:00;;;;;;;1999.90;999.90;;;20.90;99.90;;;;;;5075880;28;20416;-85
2021/07/13 02:26:36;;;;;;;1999.90;999.90;;;20.80;99.90;;;;;;5076162;28;20515;-85
2021/07/13 02:29:16;;;;;;;1999.90;999.90;;;20.80;99.90;;;;;;5074169;28;20444;-86
2021/07/13 02:31:47;;;;;;;1999.90;999.90;;;20.70;99.90;;;;;;5057396;28;20452;-86
2021/07/13 02:34:16;;;;;;;1999.90;999.90;;;20.70;99.90;;;;;;5074141;28;20442;-85
2021/07/13 02:36:45;;;;;;;1999.90;999.90;;;20.60;99.90;;;;;;5075062;28;20437;-85
2021/07/13 02:39:12;;;;;;;1999.90;999.90;;;20.60;99.90;;;;;;5058264;28;20416;-85
2021/07/13 02:41:43;;;;;;;1999.90;999.90;;;20.60;99.90;;;;;;5059373;28;20814;-86
2021/07/13 02:44:10;;;;;;;1999.90;999.90;;;20.60;99.90;;;;;;5076420;28;20413;-86
2021/07/13 02:46:43;;;;;;;1999.90;999.90;;;20.60;99.90;;;;;;5057563;28;20507;-86
2021/07/13 02:49:13;;;;;;;1999.90;999.90;;;20.60;99.90;;;;;;5075328;28;20389;-86
2021/07/13 02:51:40;;;;;;;1999.90;999.90;;;20.50;99.90;;;;;;5075497;28;20741;-86
2021/07/13 02:54:08;;;;;;;1999.90;999.90;;;20.50;99.90;;;;;;5075494;28;20454;-86
2021/07/13 02:56:37;;;;;;;1999.90;999.90;;;20.40;99.90;;;;;;5057291;28;20433;-86
2021/07/13 02:59:04;;;;;;;1999.90;999.90;;;20.40;99.90;;;;;;5075944;28;20409;-85
2021/07/13 03:01:31;;;;;;;1999.90;999.90;;;20.40;99.90;;;;;;5075488;28;20470;-86
2021/07/13 03:03:57;;;;;;;1999.90;999.90;;;20.40;99.90;;;;;;5076260;28;20880;-86
2021/07/13 03:06:24;;;;;;;1999.90;999.90;;;20.30;99.90;;;;;;5077784;28;20463;-85
2021/07/13 03:08:50;;;;;;;1999.90;999.90;;;20.30;99.90;;;;;;5079017;28;20912;-85
2021/07/13 03:11:16;;;;;;;1999.90;999.90;;;20.30;99.90;;;;;;5078787;28;20445;-86
2021/07/13 03:13:42;;;;;;;1999.90;999.90;;;20.30;99.90;;;;;;5077595;28;20409;-85
2021/07/13 03:16:10;;;;;;;1999.90;999.90;;;20.30;99.90;;;;;;5076584;28;20418;-85
2021/07/13 03:18:36;;;;;;;1999.90;999.90;;;20.30;99.90;;;;;;5077446;28;20404;-85
2021/07/13 03:21:04;;;;;;;1999.90;999.90;;;20.30;99.90;;;;;;5076897;28;20410;-85
2021/07/13 03:23:35;;;;;;;1999.90;999.90;;;20.30;99.90;;;;;;5076826;28;20406;-86
2021/07/13 03:26:02;;;;;;;1999.90;999.90;;;20.20;99.90;;;;;;5058591;28;20492;-85
2021/07/13 03:28:30;;;;;;;1999.90;999.90;;;20.20;99.90;;;;;;5073978;28;20931;-85
2021/07/13 03:30:56;;;;;;;1999.90;999.90;;;20.20;99.90;;;;;;5073945;28;20405;-86
2021/07/13 03:33:22;;;;;;;1999.90;999.90;;;20.30;99.90;;;;;;5073954;28;20534;-87
2021/07/13 03:35:49;;;;;;;1999.90;999.90;;;20.20;99.90;;;;;;5055733;28;21164;-87
2021/07/13 03:38:17;;;;;;;1999.90;999.90;;;20.20;99.90;;;;;;5073590;28;20445;-87
2021/07/13 03:40:45;;;;;;;1999.90;999.90;;;20.00;99.90;;;;;;5074869;28;20412;-86
2021/07/13 03:43:11;;;;;;;1999.90;999.90;;;20.00;99.90;;;;;;5057292;28;20418;-86
2021/07/13 03:45:36;;;;;;;1999.90;999.90;;;19.90;99.90;;;;;;5076650;28;20458;-86
2021/07/13 03:48:02;;;;;;;1999.90;999.90;;;19.90;99.90;;;;;;5076105;28;20914;-86
2021/07/13 03:50:34;;;;;;;1999.90;999.90;;;19.90;99.90;;;;;;5074970;28;20173;-86
2021/07/13 03:53:00;;;;;;;1999.90;999.90;;;20.00;99.90;;;;;;5074860;28;20385;-86
2021/07/13 03:55:26;;;;;;;1999.90;999.90;;;20.00;99.90;;;;;;5075330;28;20407;-86
2021/07/13 03:57:54;;;;;;;1999.90;999.90;;;20.10;99.90;;;;;;5058184;28;20410;-86
2021/07/13 04:00:22;;;;;;;1999.90;999.90;;;20.10;99.90;;;;;;5058390;28;20551;-85
2021/07/13 04:02:48;;;;;;;1999.90;999.90;;;20.10;99.90;;;;;;5075453;28;20425;-86
2021/07/13 04:05:14;;;;;;;1999.90;999.90;;;20.10;99.90;;;;;;5078878;28;20398;-87
2021/07/13 04:07:43;;;;;;;1999.90;999.90;;;20.00;99.90;;;;;;5061008;28;20234;-86
2021/07/13 04:10:12;;;;;;;1999.90;999.90;;;20.00;99.90;;;;;;5078450;28;20405;-85
2021/07/13 04:12:39;;;;;;;1999.90;999.90;;;20.10;99.90;;;;;;5081327;28;20449;-86
2021/07/13 04:15:06;;;;;;;1999.90;999.90;;;20.10;99.90;;;;;;5063250;28;20795;-87
2021/07/13 04:17:32;;;;;;;1999.90;999.90;;;20.10;99.90;;;;;;5080176;28;20848;-86
2021/07/13 04:19:58;;;;;;;1999.90;999.90;;;20.10;99.90;;;;;;5079991;28;20410;-86
2021/07/13 04:22:23;;;;;;;1999.90;999.90;;;20.00;99.90;;;;;;5078674;28;20640;-86
2021/07/13 04:24:49;;;;;;;1999.90;999.90;;;20.00;99.90;;;;;;5076771;28;20168;-86
2021/07/13 04:27:15;;;;;;;1999.90;999.90;;;20.00;99.90;;;;;;5077595;28;20213;-86
2021/07/13 04:29:41;;;;;;;1999.90;999.90;;;20.00;99.90;;;;;;5080506;28;20174;-85
2021/07/13 04:32:07;;;;;;;1999.90;999.90;;;20.00;99.90;;;;;;5080326;28;20404;-86
2021/07/13 04:34:34;;;;;;;1999.90;999.90;;;20.00;99.90;;;;;;5080820;28;20172;-85
2021/07/13 04:37:01;;;;;;;1999.90;999.90;;;20.10;99.90;;;;;;5064258;28;20524;-86
2021/07/13 04:39:26;;;;;;;1999.90;999.90;;;20.20;99.90;;;;;;5064973;28;20477;-85
2021/07/13 04:41:53;;;;;;;1999.90;999.90;;;20.20;99.90;;;;;;5082038;28;20410;-86
2021/07/13 04:44:19;;;;;;;1999.90;999.90;;;20.20;99.90;;;;;;5063173;28;20188;-86
2021/07/13 04:46:45;;;;;;;1999.90;999.90;;;20.10;99.90;;;;;;5063230;28;20449;-86
2021/07/13 04:49:12;;;;;;;1999.90;999.90;;;20.10;99.90;;;;;;5082586;28;20940;-86
2021/07/13 04:51:37;;;;;;;1999.90;999.90;;;20.10;99.90;;;;;;5064612;28;20165;-85
2021/07/13 04:54:03;;;;;;;1999.90;999.90;;;20.10;99.90;;;;;;5082985;28;20410;-86
2021/07/13 04:56:29;;;;;;;1999.90;999.90;;;20.10;99.90;;;;;;5082761;28;20205;-85
2021/07/13 04:58:54;;;;;;;1999.90;999.90;;;20.10;99.90;;;;;;5082641;28;20179;-86
2021/07/13 05:01:20;;;;;;;1999.90;999.90;;;20.10;99.90;;;;;;5082509;28;20172;-85
2021/07/13 05:03:48;;;;;;;1999.90;999.90;;;20.10;99.90;;;;;;5065900;28;20168;-85
2021/07/13 05:06:14;;;;;;;1999.90;999.90;;;20.20;99.90;;;;;;5064363;28;20200;-85
2021/07/13 05:08:41;;;;;;;1999.90;999.90;;;20.20;99.90;;;;;;5082216;28;20793;-85
2021/07/13 05:11:06;;;;;;;1999.90;999.90;;;20.20;99.90;;;;;;5080645;28;20406;-86
2021/07/13 05:13:33;;;;;;;1999.90;999.90;;;20.10;99.90;;;;;;5082227;28;20416;-85
2021/07/13 05:15:58;;;;;;;1999.90;999.90;;;20.00;99.90;;;;;;5076726;28;20187;-85
2021/07/13 05:18:24;;;;;;;1999.90;999.90;;;20.00;99.90;;;;;;5058608;28;20975;-85
2021/07/13 05:21:05;;;;;;;1999.90;999.90;;;19.90;99.90;;;;;;5076498;28;20593;-85
2021/07/13 05:23:31;;;;;;;1999.90;999.90;;;20.00;99.90;;;;;;5058704;28;20550;-85
2021/07/13 05:26:00;;;;;;;1999.90;999.90;;;19.90;99.90;;;;;;5074713;28;20454;-85
2021/07/13 05:28:26;;;;;;;1999.90;999.90;;;20.00;99.90;;;;;;5076710;28;20430;-85
2021/07/13 05:30:51;;;;;;;1999.90;999.90;;;20.00;99.90;;;;;;5077037;28;20761;-84
2021/07/13 05:33:17;;;;;;;1999.90;999.90;;;20.00;99.90;;;;;;5076785;28;20244;-85
2021/07/13 05:35:46;;;;;;;1999.90;999.90;;;20.00;99.90;;;;;;5058702;28;20562;-85
2021/07/13 05:38:12;;;;;;;1999.90;999.90;;;20.00;99.90;;;;;;5076212;28;20187;-85
2021/07/13 05:40:38;;;;;;;1999.90;999.90;;;20.00;99.90;;;;;;5077049;28;20416;-84
2021/07/13 05:43:04;;;;;;;1999.90;999.90;;;20.00;99.90;;;;;;5077393;28;20164;-84
2021/07/13 05:45:30;;;;;;;1999.90;999.90;;;20.00;99.90;;;;;;5077158;28;20406;-84
2021/07/13 05:47:56;;;;;;;1999.90;999.90;;;20.00;99.90;;;;;;5078898;28;20619;-83
2021/07/13 05:50:21;;;;;;;1999.90;999.90;;;20.00;99.90;;;;;;5077888;28;20454;-83
2021/07/13 05:52:47;;;;;;;1999.90;999.90;;;20.00;99.90;;;;;;5078826;28;20502;-83
2021/07/13 05:55:13;;;;;;;1999.90;999.90;;;20.00;99.90;;;;;;5079131;28;20172;-83
2021/07/13 05:57:39;;;;;;;1999.90;999.90;;;20.10;99.90;;;;;;5061275;28;20255;-83
2021/07/13 06:00:07;;;;;;;1999.90;999.90;;;20.10;99.90;;;;;;5077930;28;20437;-84
2021/07/13 06:02:33;;;;;;;1999.90;999.90;;;20.10;99.90;;;;;;5059124;28;20407;-84
2021/07/13 06:04:58;;;;;;;1999.90;999.90;;;20.10;99.90;;;;;;5078429;28;20893;-84
2021/07/13 06:07:24;;;;;;;1999.90;999.90;;;20.10;99.90;;;;;;5061628;28;20206;-84
2021/07/13 06:09:49;;;;;;;1999.90;999.90;;;20.00;99.90;;;;;;5061366;28;20164;-85
2021/07/13 06:12:15;;;;;;;1999.90;999.90;;;20.00;99.90;;;;;;5058272;28;20171;-85
2021/07/13 06:14:41;;;;;;;1999.90;999.90;;;20.00;99.90;;;;;;5074601;28;20161;-86
2021/07/13 06:17:07;;;;;;;1999.90;999.90;;;20.00;99.90;;;;;;5075491;28;20586;-86
2021/07/13 06:19:34;;;;;;;1999.90;999.90;;;20.00;99.90;;;;;;5076582;28;20172;-85
2021/07/13 06:22:01;;;;;;;1999.90;999.90;;;20.00;99.90;;;;;;5057326;28;20406;-86
2021/07/13 06:24:26;;;;;;;1999.90;999.90;;;20.10;99.90;;;;;;5057136;28;20786;-86
2021/07/13 06:26:52;;;;;;;1999.90;999.90;;;20.00;99.90;;;;;;5074797;28;20438;-84
2021/07/13 06:29:18;;;;;;;1999.90;999.90;;;20.00;99.90;;;;;;5075208;28;20175;-85
2021/07/13 06:31:44;;;;;;;1999.90;999.90;;;19.90;99.90;;;;;;5057339;28;20160;-85
2021/07/13 06:34:11;;;;;;;1999.90;999.90;;;20.00;99.90;;;;;;5075433;28;20576;-84
2021/07/13 06:36:37;;;;;;;1999.90;999.90;;;20.00;99.90;;;;;;5057525;28;20192;-84
2021/07/13 06:39:03;;;;;;;1999.90;999.90;;;19.90;99.90;;;;;;5075667;28;20425;-84
2021/07/13 06:41:28;;;;;;;1999.90;999.90;;;19.90;99.90;;;;;;5075720;28;20412;-84
2021/07/13 06:43:54;;;;;;;1999.90;999.90;;;19.90;99.90;;;;;;5076258;28;20899;-84
2021/07/13 06:46:22;;;;;;;1999.90;999.90;;;19.90;99.90;;;;;;5074737;28;20196;-85
2021/07/13 06:48:47;;;;;;;1999.90;999.90;;;19.90;99.90;;;;;;5058418;28;20195;-85
2021/07/13 06:51:13;;;;;;;1999.90;999.90;;;19.90;99.90;;;;;;5076744;28;20403;-85
2021/07/13 06:53:39;;;;;;;1999.90;999.90;;;20.00;99.90;;;;;;5058489;28;20197;-86
2021/07/13 06:56:06;;;;;;;1999.90;999.90;;;19.90;99.90;;;;;;5075243;28;20501;-86
2021/07/13 06:58:31;;;;;;;1999.90;999.90;;;20.00;99.90;;;;;;5057349;28;20172;-86
2021/07/13 07:00:57;;;;;;;1999.90;999.90;;;19.90;99.90;;;;;;5076125;28;20404;-85
2021/07/13 07:03:23;;;;;;;1999.90;999.90;;;19.90;99.90;;;;;;5056775;28;20202;-85
2021/07/13 07:05:48;;;;;;;1999.90;999.90;;;19.90;99.90;;;;;;5058507;28;20204;-85
2021/07/13 07:08:14;;;;;;;1999.90;999.90;;;19.90;99.90;;;;;;5057227;28;20588;-85
2021/07/13 07:10:40;;;;;;;1999.90;999.90;;;19.90;99.90;;;;;;5057122;28;20168;-85
2021/07/13 07:13:05;;;;;;;1999.90;999.90;;;19.80;99.90;;;;;;5073010;28;20249;-86
2021/07/13 07:15:31;;;;;;;1999.90;999.90;;;19.90;99.90;;;;;;5056524;28;20172;-85
2021/07/13 07:17:57;;;;;;;1999.90;999.90;;;19.80;99.90;;;;;;5074832;28;20160;-85
2021/07/13 07:20:26;;;;;;;1999.90;999.90;;;19.70;99.90;;;;;;5057370;28;20408;-84
2021/07/13 07:22:53;;;;;;;1999.90;999.90;;;19.70;99.90;;;;;;5074601;28;20161;-85
2021/07/13 07:25:19;;;;;;;1999.90;999.90;;;19.70;99.90;;;;;;5057213;28;20792;-85
2021/07/13 07:27:46;;;;;;;1999.90;999.90;;;19.70;99.90;;;;;;5075046;28;20805;-85
2021/07/13 07:30:13;;;;;;;1999.90;999.90;;;19.70;99.90;;;;;;5057079;28;20888;-84
2021/07/13 07:32:40;;;;;;;1999.90;999.90;;;19.60;99.90;;;;;;5057382;28;20485;-84
2021/07/13 07:35:07;;;;;;;1999.90;999.90;;;19.50;99.90;;;;;;5075064;28;20453;-84
2021/07/13 07:37:33;;;;;;;1999.90;999.90;;;19.50;99.90;;;;;;5129936;22;20501;-82
2021/07/13 07:39:59;;;;;;;1999.90;999.90;;;19.60;99.90;;;;;;5077357;28;20395;-82
2021/07/13 07:42:26;;;;;;;1999.90;999.90;;;19.60;99.90;;;;;;5059311;28;20482;-82
2021/07/13 07:44:54;;;;;;;1999.90;999.90;;;19.60;99.90;;;;;;5077485;28;20641;-82
2021/07/13 07:47:20;;;;;;;1999.90;999.90;;;19.60;99.90;;;;;;5094984;28;20453;-82
2021/07/13 07:49:46;;;;;;;1999.90;999.90;;;19.60;99.90;;;;;;5096788;28;20489;-82
2021/07/13 07:52:11;;;;;;;1999.90;999.90;;;19.60;99.90;;;;;;5078846;28;20262;-82
2021/07/13 07:54:40;;;;;;;1999.90;999.90;;;19.60;99.90;;;;;;5096787;28;20626;-82
2021/07/13 07:57:09;;;;;;;1999.90;999.90;;;19.60;99.90;;;;;;5078968;28;20719;-82
2021/07/13 07:59:37;;;;;;;1999.90;999.90;;;19.60;99.90;;;;;;5078278;28;20468;-82
2021/07/13 08:02:03;;;;;;;1999.90;999.90;;;19.60;99.90;;;;;;5078258;28;20423;-82
2021/07/13 08:04:29;;;;;;;1999.90;999.90;;;19.70;99.90;;;;;;5078341;28;20413;-81
2021/07/13 08:06:58;;;;;;;1999.90;999.90;;;19.70;99.90;;;;;;5095855;28;20490;-82
2021/07/13 08:09:29;;;;;;;1999.90;999.90;;;19.60;99.90;;;;;;5096689;28;20184;-82
2021/07/13 08:11:57;;;;;;;1999.90;999.90;;;19.60;99.90;;;;;;5094958;28;20426;-82
2021/07/13 08:14:23;;;;;;;1999.90;999.90;;;19.60;99.90;;;;;;5097005;28;20394;-82
2021/07/13 08:16:49;;;;;;;1999.90;999.90;;;19.60;99.90;;;;;;5097694;28;20425;-82
2021/07/13 08:19:15;;;;;;;1999.90;999.90;;;19.60;99.90;;;;;;5097808;28;20393;-82
2021/07/13 08:21:41;;;;;;;1999.90;999.90;;;19.60;99.90;;;;;;5098011;28;20405;-82
2021/07/13 08:24:08;;;;;;;1999.90;999.90;;;19.70;99.90;;;;;;5097397;28;20400;-82
2021/07/13 08:26:38;;;;;;;1999.90;999.90;;;19.70;99.90;;;;;;5079429;28;20667;-82
2021/07/13 08:29:04;;;;;;;1999.90;999.90;;;19.60;99.90;;;;;;5097200;28;20768;-82
2021/07/13 08:31:30;;;;;;;1999.90;999.90;;;19.60;99.90;;;;;;5097185;28;20393;-82
2021/07/13 08:33:59;;;;;;;1999.90;999.90;;;19.60;99.90;;;;;;5096767;28;20390;-83
2021/07/13 08:36:29;;;;;;;1999.90;999.90;;;19.60;99.90;;;;;;5096253;28;20450;-82
2021/07/13 08:38:57;;;;;;;1999.90;999.90;;;19.60;99.90;;;;;;5096493;28;20426;-82
2021/07/13 08:41:23;;;;;;;1999.90;999.90;;;19.70;99.90;;;;;;5096620;28;20425;-82
2021/07/13 08:43:54;;;;;;;1999.90;999.90;;;19.70;99.90;;;;;;5078401;28;20418;-82
2021/07/13 08:46:21;;;;;;;1999.90;999.90;;;19.80;99.90;;;;;;5097374;28;20195;-82
2021/07/13 08:48:51;;;;;;;1999.90;999.90;;;19.80;99.90;;;;;;5096452;28;20450;-82
2021/07/13 08:51:18;;;;;;;1999.90;999.90;;;19.80;99.90;;;;;;5078956;28;20402;-82
2021/07/13 08:53:44;;;;;;;1999.90;999.90;;;19.80;99.90;;;;;;5097319;28;20539;-82
2021/07/13 08:56:10;;;;;;;1999.90;999.90;;;19.90;99.90;;;;;;5080382;28;20451;-83
2021/07/13 08:58:36;;;;;;;1999.90;999.90;;;20.00;99.90;;;;;;5098213;28;20216;-82
2021/07/13 09:01:02;;;;;;;1999.90;999.90;;;20.00;99.90;;;;;;5098732;28;20223;-83
2021/07/13 09:03:32;;;;;;;1999.90;999.90;;;20.10;99.90;;;;;;5082315;28;20659;-83
2021/07/13 09:06:02;;;;;;;1999.90;999.90;;;20.10;99.90;;;;;;5081559;28;20452;-83
2021/07/13 09:08:32;;;;;;;1999.90;999.90;;;20.00;99.90;;;;;;5081449;28;20398;-83
2021/07/13 09:11:13;;;;;;;1999.90;999.90;;;20.10;99.90;;;;;;5098300;28;20398;-83
2021/07/13 09:13:46;;;;;;;1999.90;999.90;;;20.10;99.90;;;;;;5099301;28;20946;-83
2021/07/13 09:16:18;;;;;;;1999.90;999.90;;;20.10;99.90;;;;;;5100960;28;20426;-83
2021/07/13 09:18:48;;;;;;;1999.90;999.90;;;20.20;99.90;;;;;;5100986;28;20409;-83
2021/07/13 09:21:24;;;;;;;1999.90;999.90;;;20.30;99.90;;;;;;5082216;28;20412;-83
2021/07/13 09:24:04;;;;;;;1999.90;999.90;;;20.40;99.90;;;;;;5100618;28;20480;-83
2021/07/13 09:26:52;;;;;;;1999.90;999.90;;;20.50;99.90;;;;;;5082603;28;20789;-82
2021/07/13 09:29:51;;;;;;;1999.90;999.90;;;20.60;99.90;;;;;;5099392;28;20836;-83
2021/07/13 09:32:37;;;;;;;1999.90;999.90;;;20.70;99.90;;;;;;5101057;28;20408;-82
2021/07/13 09:35:13;;;;;;;1999.90;999.90;;;20.70;99.90;;;;;;5082322;28;20455;-83
2021/07/13 09:37:51;;;;;;;1999.90;999.90;;;20.70;99.90;;;;;;5081202;28;20826;-83
2021/07/13 09:40:27;;;;;;;1999.90;999.90;;;20.80;99.90;;;;;;5082087;28;20407;-83
2021/07/13 09:46:37;;;;;;;1999.90;999.90;;;21.00;99.90;;;;;;5037747;28;21054;-83
2021/07/13 09:49:41;;;;;;;;;;;;;;;;;;;;;
2021/07/13 09:55:28;;;;;;;1999.90;999.90;;;21.40;99.90;;;;;;5099629;28;20970;-82
2021/07/13 09:58:18;;;;;;;1999.90;999.90;;;21.50;99.90;;;;;;5098150;28;20446;-82
2021/07/13 10:01:18;;;;;;;1999.90;999.90;;;21.60;99.90;;;;;;5061539;28;20416;-83
2021/07/13 10:03:47;;;;;;;1999.90;999.90;;;21.70;99.90;;;;;;5094561;28;20424;-83
2021/07/13 10:06:15;;;;;;;1999.90;999.90;;;21.70;99.90;;;;;;5099267;28;20472;-82
2021/07/13 10:08:43;;;;;;;1999.90;999.90;;;21.80;99.90;;;;;;5099734;28;20406;-82
2021/07/13 10:11:20;;;;;;;1999.90;999.90;;;21.80;99.90;;;;;;5099596;28;20401;-82
2021/07/13 10:13:51;;;;;;;1999.90;999.90;;;22.00;99.90;;;;;;5099064;28;20768;-82
2021/07/13 10:16:29;;;;;;;1999.90;999.90;;;22.20;99.90;;;;;;5080974;28;20516;-82
2021/07/13 10:18:55;;;;;;;1999.90;999.90;;;22.30;99.90;;;;;;5098812;28;20385;-82
2021/07/13 10:21:31;;;;;;;1999.90;999.90;;;22.30;99.90;;;;;;5080962;28;20930;-82
2021/07/13 10:24:04;;;;;;;1999.90;999.90;;;22.30;99.90;;;;;;5099328;28;20465;-82
2021/07/13 10:26:56;;;;;;;1999.90;999.90;;;22.40;99.90;;;;;;5080894;28;20449;-82
2021/07/13 10:29:34;;;;;;;1999.90;999.90;;;22.40;99.90;;;;;;5081071;28;20417;-82
2021/07/13 10:32:07;;;;;;;1999.90;999.90;;;22.50;99.90;;;;;;5080828;28;20916;-82
2021/07/13 10:34:53;;;;;;;1999.90;999.90;;;22.60;99.90;;;;;;5098879;28;20370;-82
2021/07/13 10:38:06;;;;;;;1999.90;999.90;;;22.60;99.90;;;;;;5080266;28;20516;-82
2021/07/13 10:40:55;;;;;;;1999.90;999.90;;;22.70;99.90;;;;;;5079012;28;20408;-82
2021/07/13 10:43:34;;;;;;;1999.90;999.90;;;22.80;99.90;;;;;;5080081;28;20398;-82
2021/07/13 10:46:17;;;;;;;1999.90;999.90;;;22.80;99.90;;;;;;5080622;28;20448;-81
2021/07/13 10:49:05;;;;;;;1999.90;999.90;;;22.80;99.90;;;;;;5081400;28;20408;-81
2021/07/13 10:52:06;;;;;;;1999.90;999.90;;;22.80;99.90;;;;;;5057051;28;20481;-80
2021/07/13 10:54:48;;;;;;;;;;;;;;;;;;;;;
2021/07/13 10:57:21;;;;;;;1999.90;999.90;;;22.70;99.90;;;;;;5038076;28;20994;-81
2021/07/13 10:59:51;;;;;;;1999.90;999.90;;;22.50;99.90;;;;;;5096823;28;20451;-81
2021/07/13 11:02:54;;;;;;;1999.90;999.90;;;22.50;99.90;;;;;;5097440;28;20408;-81
2021/07/13 11:07:59;;;;;;;1999.90;999.90;;;22.70;99.90;;;;;;5174174;22;20514;-83
2021/07/13 11:10:37;;;;;;;1999.90;999.90;;;22.70;99.90;;;;;;5098858;28;20471;-83
2021/07/13 11:13:23;;;;;;;1999.90;999.90;;;22.60;99.90;;;;;;5098066;28;20386;-83
2021/07/13 11:16:42;;;;;;;1999.90;999.90;;;22.50;99.90;;;;;;5097811;28;20433;-84
2021/07/13 11:22:51;;;;;;;1999.90;999.90;;;22.40;99.90;;;;;;5099277;28;20487;-84
2021/07/13 11:25:47;;;;;;;1999.90;999.90;;;22.40;99.90;;;;;;5078333;28;20939;-82
2021/07/13 11:28:16;;;;;;;1999.90;999.90;;;22.30;99.90;;;;;;5098627;28;20393;-83
2021/07/13 11:30:48;;;;;;;1999.90;999.90;;;22.20;99.90;;;;;;5080683;28;20413;-83
2021/07/13 11:33:57;;;;;;;1999.90;999.90;;;22.20;99.90;;;;;;5080133;28;20488;-83
2021/07/13 11:36:33;;;;;;;1999.90;999.90;;;22.20;99.90;;;;;;5096135;28;20826;-83
2021/07/13 11:39:02;;;;;;;1999.90;999.90;;;22.00;99.90;;;;;;5098533;28;20928;-83
2021/07/13 11:41:31;;;;;;;1999.90;999.90;;;22.00;99.90;;;;;;5079759;28;20429;-82
2021/07/13 11:43:59;;;;;;;1999.90;999.90;;;21.90;99.90;;;;;;5098321;28;20429;-82
2021/07/13 11:46:33;;;;;;;1999.90;999.90;;;21.90;99.90;;;;;;5100014;28;20452;-82
2021/07/13 11:49:19;;;;;;;1999.90;999.90;;;21.80;99.90;;;;;;5082578;28;20442;-83
2021/07/13 11:51:55;;;;;;;1999.90;999.90;;;21.80;99.90;;;;;;5083747;28;20409;-83
2021/07/13 11:54:27;;;;;;;1999.90;999.90;;;21.70;99.90;;;;;;5100056;28;20385;-83
2021/07/13 11:56:55;;;;;;;1999.90;999.90;;;21.60;99.90;;;;;;5099337;28;20452;-83
2021/07/13 11:59:22;;;;;;;1999.90;999.90;;;21.60;99.90;;;;;;5099907;28;20410;-82
2021/07/13 12:01:54;;;;;;;1999.90;999.90;;;21.60;99.90;;;;;;5098809;28;20443;-81
2021/07/13 12:04:25;;;;;;;1999.90;999.90;;;21.50;99.90;;;;;;5098319;28;20390;-81
2021/07/13 12:06:59;;;;;;;1999.90;999.90;;;21.50;99.90;;;;;;5095644;28;20457;-81
2021/07/13 12:09:33;;;;;;;1999.90;999.90;;;21.50;99.90;;;;;;5097131;28;20410;-81
2021/07/13 12:12:10;;;;;;;1999.90;999.90;;;21.40;99.90;;;;;;5079548;28;20412;-81
2021/07/13 12:14:38;;;;;;;1999.90;999.90;;;21.40;99.90;;;;;;5097444;28;20420;-81
2021/07/13 12:17:10;;;;;;;1999.90;999.90;;;21.40;99.90;;;;;;5095773;28;20425;-81
2021/07/13 12:19:39;;;;;;;1999.90;999.90;;;21.40;99.90;;;;;;5095732;28;20385;-81
2021/07/13 12:22:10;;;;;;;1999.90;999.90;;;21.30;99.90;;;;;;5096034;28;20430;-81
2021/07/13 12:24:43;;;;;;;1999.90;999.90;;;21.40;99.90;;;;;;5095604;28;20439;-81
2021/07/13 12:27:18;;;;;;;1999.90;999.90;;;21.60;99.90;;;;;;5077649;28;20461;-81
2021/07/13 12:30:23;;;;;;;1999.90;999.90;;;21.80;99.90;;;;;;5096056;28;20390;-81